createdAt,value
2023-01-06T00:01:27.135Z,28.66
2023-01-06T00:03:58.546Z,29.15
2023-01-06T00:06:28.666Z,28.83
2023-01-06T00:08:59.728Z,28.79
2023-01-06T00:11:28.418Z,29.02
2023-01-06T00:13:57.452Z,28.96
2023-01-06T00:16:27.614Z,28.54
2023-01-06T00:18:57.228Z,29.04
2023-01-06T00:21:25.814Z,28.70
2023-01-06T00:23:54.468Z,28.58
2023-01-06T00:26:23.229Z,28.98
2023-01-06T00:28:53.931Z,28.78
2023-01-06T00:31:22.351Z,28.68
2023-01-06T00:33:52.391Z,28.40
2023-01-06T00:36:22.109Z,28.66
2023-01-06T00:38:51.531Z,28.49
2023-01-06T00:41:37.806Z,28.40
2023-01-06T00:44:06.764Z,28.70
2023-01-06T00:46:35.521Z,28.71
2023-01-06T00:49:07.602Z,28.47
2023-01-06T00:51:38.404Z,28.76
2023-01-06T00:54:07.325Z,28.70
2023-01-06T00:56:38.718Z,28.48
2023-01-06T00:59:07.546Z,28.52
2023-01-06T01:01:36.590Z,28.63
2023-01-06T01:04:06.951Z,28.75
2023-01-06T01:06:36.378Z,28.78
2023-01-06T01:09:06.225Z,28.93
2023-01-06T01:11:52.334Z,28.97
2023-01-06T01:14:21.883Z,28.58
2023-01-06T01:16:50.240Z,29.10
2023-01-06T01:19:20.948Z,28.94
2023-01-06T01:21:49.670Z,29.38
2023-01-06T01:24:18.458Z,29.10
2023-01-06T01:26:47.037Z,29.15
2023-01-06T01:29:17.505Z,28.91
2023-01-06T01:31:46.329Z,29.11
2023-01-06T01:34:16.603Z,28.83
2023-01-06T01:36:47.826Z,28.49
2023-01-06T01:39:18.217Z,28.88
2023-01-06T01:41:46.857Z,29.10
2023-01-06T01:44:52.224Z,28.56
2023-01-06T01:47:24.238Z,29.08
2023-01-06T01:49:56.041Z,29.26
2023-01-06T01:52:26.027Z,28.99
2023-01-06T01:54:55.405Z,29.44
2023-01-06T01:57:26.521Z,29.33
2023-01-06T01:59:55.219Z,29.57
2023-01-06T02:02:24.928Z,29.54
2023-01-06T02:04:56.035Z,29.54
2023-01-06T02:07:27.541Z,29.34
2023-01-06T02:10:04.355Z,29.39
2023-01-06T02:12:32.775Z,30.33
2023-01-06T02:15:01.495Z,30.24
2023-01-06T02:17:43.475Z,29.41
2023-01-06T02:20:36.860Z,29.28
2023-01-06T02:23:37.744Z,28.84
2023-01-06T02:26:30.434Z,28.94
2023-01-06T02:29:28.586Z,28.97
2023-01-06T02:32:16.639Z,29.27
2023-01-06T02:34:52.634Z,29.60
2023-01-06T02:37:33.409Z,29.51
2023-01-06T02:40:13.580Z,29.40
2023-01-06T02:42:49.589Z,29.93
2023-01-06T02:45:21.379Z,29.94
2023-01-06T02:48:00.122Z,29.66
2023-01-06T02:50:35.612Z,29.56
2023-01-06T02:53:08.323Z,29.65
2023-01-06T02:55:39.095Z,29.56
2023-01-06T02:58:14.259Z,29.17
2023-01-06T03:00:44.329Z,29.52
2023-01-06T03:03:17.283Z,29.40
2023-01-06T03:05:47.169Z,30.16
2023-01-06T03:08:21.484Z,29.80
2023-01-06T03:10:50.577Z,30.27
2023-01-06T03:13:25.091Z,29.92
2023-01-06T03:15:53.453Z,30.14
2023-01-06T03:18:23.662Z,29.76
2023-01-06T03:20:52.510Z,29.64
2023-01-06T03:23:21.722Z,29.93
2023-01-06T03:25:49.979Z,29.83
2023-01-06T03:28:18.825Z,30.06
2023-01-06T03:30:55.149Z,29.51
2023-01-06T03:33:28.434Z,29.88
2023-01-06T03:36:07.469Z,29.55
2023-01-06T03:38:44.277Z,29.55
2023-01-06T03:41:21.214Z,29.65
2023-01-06T03:43:57.988Z,29.52
2023-01-06T03:46:28.669Z,29.80
2023-01-06T03:49:04.519Z,29.52
2023-01-06T03:51:42.083Z,29.42
2023-01-06T03:54:15.637Z,29.70
2023-01-06T03:56:46.625Z,29.60
2023-01-06T03:59:16.036Z,28.96
2023-01-06T04:01:45.263Z,29.63
2023-01-06T04:04:16.389Z,29.83
2023-01-06T04:06:44.677Z,29.76
2023-01-06T04:09:13.362Z,29.81
2023-01-06T04:11:59.165Z,29.96
2023-01-06T04:14:27.883Z,29.72
2023-01-06T04:16:56.093Z,29.68
2023-01-06T04:19:26.319Z,29.42
2023-01-06T04:21:54.495Z,29.41
2023-01-06T04:24:23.111Z,29.56
2023-01-06T04:26:51.399Z,29.35
2023-01-06T04:29:20.231Z,29.27
2023-01-06T04:31:49.568Z,29.65
2023-01-06T04:34:18.091Z,29.52
2023-01-06T04:36:47.771Z,29.50
2023-01-06T04:39:16.309Z,29.59
2023-01-06T04:41:44.534Z,29.76
2023-01-06T04:44:13.137Z,29.79
2023-01-06T04:46:41.415Z,29.87
2023-01-06T04:49:09.991Z,29.71
2023-01-06T04:51:38.462Z,29.75
2023-01-06T04:54:08.835Z,29.63
2023-01-06T04:56:37.157Z,29.53
2023-01-06T04:59:05.689Z,29.63
2023-01-06T05:01:34.007Z,29.47
2023-01-06T05:04:02.862Z,29.50
2023-01-06T05:06:31.163Z,29.33
2023-01-06T05:08:59.704Z,29.43
2023-01-06T05:11:29.481Z,29.11
2023-01-06T05:13:57.998Z,29.33
2023-01-06T05:16:29.094Z,29.33
2023-01-06T05:18:57.515Z,28.31
2023-01-06T05:21:27.045Z,29.26
2023-01-06T05:23:56.022Z,29.32
2023-01-06T05:26:26.570Z,29.39
2023-01-06T05:28:56.824Z,29.48
2023-01-06T05:31:25.091Z,29.53
2023-01-06T05:33:53.741Z,29.41
2023-01-06T05:36:22.084Z,29.35
2023-01-06T05:38:54.538Z,29.30
2023-01-06T05:41:22.969Z,29.53
2023-01-06T05:43:51.489Z,29.41
2023-01-06T05:46:21.113Z,29.21
2023-01-06T05:48:49.578Z,29.42
2023-01-06T05:51:18.354Z,29.54
2023-01-06T05:53:48.303Z,29.40
2023-01-06T05:56:18.235Z,29.62
2023-01-06T05:58:48.199Z,29.39
2023-01-06T06:01:18.682Z,29.52
2023-01-06T06:03:48.863Z,29.16
2023-01-06T06:06:17.453Z,29.40
2023-01-06T06:08:46.087Z,29.50
2023-01-06T06:11:15.779Z,29.54
2023-01-06T06:13:47.351Z,29.40
2023-01-06T06:16:16.864Z,29.87
2023-01-06T06:18:45.995Z,30.05
2023-01-06T06:21:16.832Z,30.01
2023-01-06T06:23:45.589Z,30.45
2023-01-06T06:26:14.049Z,30.74
2023-01-06T06:28:42.887Z,30.78
2023-01-06T06:31:13.486Z,30.91
2023-01-06T06:33:42.633Z,30.85
2023-01-06T06:36:12.298Z,31.13
2023-01-06T06:38:42.419Z,30.95
2023-01-06T06:41:10.811Z,30.88
2023-01-06T06:43:40.608Z,30.81
2023-01-06T06:46:09.294Z,31.06
2023-01-06T06:48:38.198Z,30.85
2023-01-06T06:51:07.988Z,31.03
2023-01-06T06:53:37.236Z,30.80
2023-01-06T06:56:08.589Z,30.51
2023-01-06T06:58:38.166Z,30.92
2023-01-06T07:01:07.114Z,30.93
2023-01-06T07:03:35.963Z,30.80
2023-01-06T07:06:05.084Z,30.48
2023-01-06T07:08:34.335Z,30.74
2023-01-06T07:11:04.186Z,30.73
2023-01-06T07:13:34.388Z,30.62
2023-01-06T07:16:02.957Z,30.79
2023-01-06T07:18:31.798Z,30.74
2023-01-06T07:21:00.491Z,30.85
2023-01-06T07:23:30.729Z,30.74
2023-01-06T07:26:00.637Z,30.42
2023-01-06T07:28:30.508Z,30.52
2023-01-06T07:31:00.256Z,29.32
2023-01-06T07:33:29.497Z,28.94
2023-01-06T07:35:58.699Z,28.11
2023-01-06T07:38:27.595Z,26.44
2023-01-06T07:41:00.426Z,24.84
2023-01-06T07:43:29.184Z,23.95
2023-01-06T07:45:57.770Z,23.45
2023-01-06T07:48:28.194Z,23.21
2023-01-06T07:50:56.648Z,23.47
2023-01-06T07:53:25.604Z,24.03
2023-01-06T07:55:54.352Z,24.61
2023-01-06T07:58:25.541Z,25.12
2023-01-06T08:00:53.944Z,25.18
2023-01-06T08:03:22.802Z,25.95
2023-01-06T08:05:52.733Z,25.73
2023-01-06T08:08:21.474Z,26.23
2023-01-06T08:10:49.975Z,26.46
2023-01-06T08:13:20.418Z,26.33
2023-01-06T08:15:52.178Z,26.68
2023-01-06T08:18:21.621Z,26.65
2023-01-06T08:20:49.995Z,26.59
2023-01-06T08:23:19.816Z,26.91
2023-01-06T08:25:48.288Z,27.11
2023-01-06T08:28:16.909Z,27.36
2023-01-06T08:30:45.306Z,27.72
2023-01-06T08:33:15.075Z,27.51
2023-01-06T08:35:46.963Z,27.65
2023-01-06T08:38:15.784Z,27.54
2023-01-06T08:40:45.636Z,27.23
2023-01-06T08:43:14.484Z,27.11
2023-01-06T08:45:42.995Z,27.46
2023-01-06T08:48:12.367Z,27.02
2023-01-06T08:50:41.284Z,26.94
2023-01-06T08:53:10.559Z,27.01
2023-01-06T08:55:39.496Z,26.95
2023-01-06T08:58:11.038Z,26.85
2023-01-06T09:00:41.948Z,27.17
2023-01-06T09:03:11.246Z,27.44
2023-01-06T09:05:39.795Z,27.33
2023-01-06T09:08:08.568Z,27.32
2023-01-06T09:10:38.709Z,27.23
2023-01-06T09:13:07.451Z,27.18
2023-01-06T09:15:41.071Z,27.20
2023-01-06T09:18:10.081Z,27.53
2023-01-06T09:20:38.838Z,27.67
2023-01-06T09:23:07.438Z,27.36
2023-01-06T09:25:35.798Z,27.33
2023-01-06T09:28:04.423Z,27.35
2023-01-06T09:30:33.396Z,27.34
2023-01-06T09:33:03.904Z,27.18
2023-01-06T09:35:32.831Z,27.00
2023-01-06T09:38:01.400Z,27.26
2023-01-06T09:40:45.647Z,26.77
2023-01-06T09:43:18.651Z,26.70
2023-01-06T09:45:49.624Z,26.75
2023-01-06T09:48:21.518Z,25.88
2023-01-06T09:50:58.042Z,26.77
2023-01-06T09:53:29.696Z,26.78
2023-01-06T09:56:00.635Z,25.89
2023-01-06T09:58:33.809Z,26.56
2023-01-06T10:01:05.536Z,26.90
2023-01-06T10:03:35.849Z,27.45
2023-01-06T10:06:18.975Z,26.97
2023-01-06T10:08:52.940Z,27.19
2023-01-06T10:11:25.102Z,26.85
2023-01-06T10:14:04.900Z,26.31
2023-01-06T10:16:42.944Z,26.19
2023-01-06T10:19:21.034Z,26.21
2023-01-06T10:21:55.047Z,26.40
2023-01-06T10:24:38.785Z,26.14
2023-01-06T10:27:16.755Z,25.97
2023-01-06T10:29:45.818Z,26.13
2023-01-06T10:32:17.670Z,25.88
2023-01-06T10:34:51.251Z,25.67
2023-01-06T10:37:24.076Z,25.45
2023-01-06T10:39:57.707Z,23.21
2023-01-06T10:42:50.515Z,22.40
2023-01-06T10:45:20.328Z,21.38
2023-01-06T10:47:49.757Z,21.02
2023-01-06T10:50:21.297Z,20.20
2023-01-06T10:52:50.498Z,19.61
2023-01-06T10:55:39.339Z,17.94
2023-01-06T10:58:32.055Z,17.21
2023-01-06T11:01:03.706Z,17.37
2023-01-06T11:03:34.166Z,15.79
2023-01-06T11:06:18.116Z,15.87
2023-01-06T11:08:46.964Z,16.51
2023-01-06T11:11:27.729Z,16.01
2023-01-06T11:13:59.538Z,16.05
2023-01-06T11:16:29.448Z,15.81
2023-01-06T11:19:01.972Z,16.95
2023-01-06T11:21:41.758Z,17.45
2023-01-06T11:24:19.411Z,17.20
2023-01-06T11:26:53.421Z,16.81
2023-01-06T11:29:27.909Z,16.31
2023-01-06T11:31:57.852Z,15.39
2023-01-06T11:34:29.375Z,15.33
2023-01-06T11:37:00.586Z,14.07
2023-01-06T11:39:32.483Z,13.53
2023-01-06T11:42:05.457Z,12.88
2023-01-06T11:44:36.522Z,13.01
2023-01-06T11:47:08.751Z,12.62
2023-01-06T11:49:39.174Z,12.57
2023-01-06T11:52:22.111Z,12.80
2023-01-06T11:55:00.571Z,12.84
2023-01-06T11:57:35.445Z,13.36
2023-01-06T12:00:20.366Z,12.91
2023-01-06T12:02:53.285Z,13.39
2023-01-06T12:05:30.526Z,13.90
2023-01-06T12:08:01.113Z,14.07
2023-01-06T12:10:35.289Z,15.57
2023-01-06T12:13:04.641Z,16.25
2023-01-06T12:15:34.801Z,16.48
2023-01-06T12:18:06.549Z,17.14
2023-01-06T12:20:36.627Z,17.86
2023-01-06T12:23:09.072Z,18.26
2023-01-06T12:25:39.689Z,18.88
2023-01-06T12:28:13.047Z,19.39
2023-01-06T12:30:48.283Z,19.65
2023-01-06T12:33:21.288Z,20.28
2023-01-06T12:35:51.353Z,20.66
2023-01-06T12:38:32.537Z,20.83
2023-01-06T12:41:06.111Z,21.63
2023-01-06T12:43:39.663Z,22.23
2023-01-06T12:46:13.213Z,22.65
2023-01-06T12:48:46.171Z,22.51
2023-01-06T12:51:18.209Z,22.97
2023-01-06T12:53:52.099Z,22.96
2023-01-06T12:56:29.924Z,22.73
2023-01-06T12:59:09.836Z,23.17
2023-01-06T13:01:42.497Z,23.61
2023-01-06T13:04:48.675Z,23.31
2023-01-06T13:07:25.545Z,23.66
2023-01-06T13:10:06.132Z,23.63
2023-01-06T13:12:54.860Z,23.59
2023-01-06T13:15:27.915Z,24.37
2023-01-06T13:18:05.741Z,23.93
2023-01-06T13:20:39.564Z,24.37
2023-01-06T13:23:21.003Z,24.16
2023-01-06T13:26:16.325Z,24.25
2023-01-06T13:28:53.361Z,24.57
2023-01-06T13:31:50.357Z,24.23
2023-01-06T13:34:43.644Z,24.28
2023-01-06T13:37:20.242Z,24.89
2023-01-06T13:39:51.843Z,25.18
2023-01-06T13:42:32.421Z,25.04
2023-01-06T13:45:01.664Z,25.89
2023-01-06T13:47:32.856Z,25.73
2023-01-06T13:50:02.264Z,25.95
2023-01-06T13:52:33.453Z,26.21
2023-01-06T13:55:22.477Z,26.31
2023-01-06T13:57:53.877Z,26.76
2023-01-06T14:00:27.563Z,26.38
2023-01-06T14:03:21.619Z,26.26
2023-01-06T14:05:57.814Z,26.71
2023-01-06T14:08:30.439Z,26.95
2023-01-06T14:11:23.114Z,26.65
2023-01-06T14:13:54.738Z,27.12
2023-01-06T14:16:23.670Z,26.41
2023-01-06T14:18:54.304Z,27.48
2023-01-06T14:21:29.551Z,27.11
2023-01-06T14:24:03.493Z,27.32
2023-01-06T14:26:53.308Z,27.19
2023-01-06T14:30:02.074Z,26.91
2023-01-06T14:33:05.065Z,27.21
2023-01-06T14:35:38.022Z,27.58
2023-01-06T14:38:08.041Z,27.65
2023-01-06T14:40:41.378Z,27.81
2023-01-06T14:43:46.784Z,27.25
2023-01-06T14:46:21.025Z,27.58
2023-01-06T14:48:56.661Z,27.81
2023-01-06T14:51:28.666Z,27.86
2023-01-06T14:54:00.425Z,27.99
2023-01-06T14:56:30.837Z,28.36
2023-01-06T14:59:13.874Z,27.99
2023-01-06T15:01:44.495Z,28.55
2023-01-06T15:04:26.899Z,27.83
2023-01-06T15:07:01.844Z,28.12
2023-01-06T15:09:31.577Z,29.28
2023-01-06T15:12:00.516Z,29.54
2023-01-06T15:14:31.621Z,29.47
2023-01-06T15:17:07.496Z,29.52
2023-01-06T15:19:44.698Z,29.49
2023-01-06T15:22:18.157Z,29.69
2023-01-06T15:25:21.433Z,29.14
2023-01-06T15:27:58.877Z,29.52
2023-01-06T15:30:36.150Z,29.91
2023-01-06T15:33:08.316Z,29.61
2023-01-06T15:35:46.249Z,29.33
2023-01-06T15:38:25.823Z,29.26
2023-01-06T15:41:02.978Z,29.33
2023-01-06T15:43:45.943Z,29.47
2023-01-06T15:46:23.586Z,30.05
2023-01-06T15:49:01.830Z,29.71
2023-01-06T15:51:33.960Z,30.16
2023-01-06T15:54:05.878Z,30.53
2023-01-06T15:56:37.530Z,31.04
2023-01-06T15:59:13.443Z,30.73
2023-01-06T16:02:05.008Z,30.64
2023-01-06T16:04:38.784Z,31.03
2023-01-06T16:07:42.226Z,30.22
2023-01-06T16:10:35.344Z,29.99
2023-01-06T16:13:22.846Z,30.30
2023-01-06T16:15:53.337Z,30.87
2023-01-06T16:18:31.754Z,30.41
2023-01-06T16:21:22.829Z,30.58
2023-01-06T16:24:07.591Z,30.01
2023-01-06T16:27:08.652Z,30.14
2023-01-06T16:29:38.867Z,30.95
2023-01-06T16:32:30.904Z,30.12
2023-01-06T16:35:03.487Z,30.54
2023-01-06T16:37:35.318Z,30.91
2023-01-06T16:40:07.785Z,30.41
2023-01-06T16:42:43.973Z,30.85
2023-01-06T16:45:24.960Z,30.01
2023-01-06T16:47:54.745Z,30.95
2023-01-06T16:50:26.244Z,31.00
2023-01-06T16:53:12.099Z,30.67
2023-01-06T16:55:43.114Z,31.25
2023-01-06T16:58:16.104Z,30.47
2023-01-06T17:00:51.807Z,31.61
2023-01-06T17:03:29.021Z,31.53
2023-01-06T17:06:00.784Z,32.07
2023-01-06T17:08:34.599Z,31.64
2023-01-06T17:11:15.552Z,31.59
2023-01-06T17:13:57.844Z,32.41
2023-01-06T17:16:32.683Z,32.46
2023-01-06T17:19:17.445Z,32.49
2023-01-06T17:21:49.521Z,32.58
2023-01-06T17:24:25.883Z,33.10
2023-01-06T17:27:00.632Z,33.44
2023-01-06T17:29:37.894Z,33.68
2023-01-06T17:32:16.639Z,33.67
2023-01-06T17:34:45.563Z,34.77
2023-01-06T17:37:17.046Z,34.89
2023-01-06T17:39:46.494Z,35.54
2023-01-06T17:42:27.809Z,34.90
2023-01-06T17:44:58.117Z,35.78
2023-01-06T17:47:29.473Z,35.68
2023-01-06T17:49:59.343Z,35.86
2023-01-06T17:52:32.048Z,35.67
2023-01-06T17:55:21.441Z,35.49
2023-01-06T17:57:51.588Z,35.35
2023-01-06T18:00:23.908Z,35.62
2023-01-06T18:02:56.137Z,35.53
2023-01-06T18:05:58.621Z,35.01
2023-01-06T18:08:27.973Z,35.97
2023-01-06T18:10:59.483Z,35.83
2023-01-06T18:13:34.148Z,35.65
2023-01-06T18:16:04.144Z,36.49
2023-01-06T18:18:35.386Z,35.87
2023-01-06T18:21:05.811Z,34.94
2023-01-06T18:23:35.056Z,36.13
2023-01-06T18:26:28.219Z,35.57
2023-01-06T18:28:59.167Z,35.99
2023-01-06T18:31:29.952Z,36.05
2023-01-06T18:33:58.443Z,36.14
2023-01-06T18:36:27.306Z,36.49
2023-01-06T18:38:55.940Z,36.40
2023-01-06T18:41:24.777Z,36.26
2023-01-06T18:43:53.237Z,36.47
2023-01-06T18:46:27.232Z,36.29
2023-01-06T18:48:56.379Z,35.62
2023-01-06T18:51:25.447Z,35.74
2023-01-06T18:53:54.062Z,35.64
2023-01-06T18:56:25.908Z,35.45
2023-01-06T18:58:54.187Z,34.09
2023-01-06T19:01:27.515Z,35.75
2023-01-06T19:04:01.499Z,35.53
2023-01-06T19:06:40.892Z,34.95
2023-01-06T19:09:18.594Z,34.62
2023-01-06T19:11:48.093Z,35.66
2023-01-06T19:14:18.752Z,35.56
2023-01-06T19:16:52.294Z,35.61
2023-01-06T19:19:37.882Z,35.31
2023-01-06T19:22:26.176Z,34.92
2023-01-06T19:24:59.623Z,35.45
2023-01-06T19:27:39.414Z,35.18
2023-01-06T19:30:44.331Z,34.83
2023-01-06T19:33:27.860Z,34.92
2023-01-06T19:36:02.798Z,35.33
2023-01-06T19:38:32.645Z,35.71
2023-01-06T19:41:02.801Z,35.87
2023-01-06T19:43:33.063Z,35.95
2023-01-06T19:46:03.858Z,35.69
2023-01-06T19:48:38.765Z,35.33
2023-01-06T19:51:22.791Z,35.31
2023-01-06T19:53:52.689Z,36.07
2023-01-06T19:56:23.367Z,35.79
2023-01-06T19:58:53.513Z,36.50
2023-01-06T20:01:25.446Z,36.23
2023-01-06T20:03:55.925Z,36.49
2023-01-06T20:06:25.148Z,37.13
2023-01-06T20:08:54.467Z,36.85
2023-01-06T20:11:24.834Z,37.07
2023-01-06T20:13:53.699Z,37.45
2023-01-06T20:16:21.993Z,37.60
2023-01-06T20:18:50.956Z,37.42
2023-01-06T20:21:20.822Z,37.27
2023-01-06T20:23:49.399Z,37.23
2023-01-06T20:26:17.975Z,37.42
2023-01-06T20:28:46.725Z,37.58
2023-01-06T20:31:15.285Z,37.20
2023-01-06T20:33:43.787Z,37.71
2023-01-06T20:36:17.185Z,37.65
2023-01-06T20:38:47.912Z,37.85
2023-01-06T20:41:16.392Z,37.82
2023-01-06T20:43:45.046Z,37.78
2023-01-06T20:46:14.718Z,37.92
2023-01-06T20:48:43.407Z,37.62
2023-01-06T20:51:11.863Z,37.96
2023-01-06T20:53:40.406Z,37.35
2023-01-06T20:56:10.494Z,37.36
2023-01-06T20:58:39.297Z,37.59
2023-01-06T21:01:07.887Z,37.94
2023-01-06T21:03:36.446Z,37.89
2023-01-06T21:06:05.866Z,37.98
2023-01-06T21:08:34.584Z,37.58
2023-01-06T21:11:03.143Z,37.45
2023-01-06T21:13:33.689Z,37.18
2023-01-06T21:16:07.138Z,37.34
2023-01-06T21:18:36.270Z,37.61
2023-01-06T21:21:05.137Z,37.59
2023-01-06T21:23:42.352Z,37.35
2023-01-06T21:26:24.308Z,36.72
2023-01-06T21:28:55.141Z,37.09
2023-01-06T21:31:24.329Z,37.39
2023-01-06T21:33:56.450Z,37.50
2023-01-06T21:36:25.377Z,37.90
2023-01-06T21:38:54.067Z,37.68
2023-01-06T21:41:45.438Z,37.19
2023-01-06T21:44:20.724Z,37.17
2023-01-06T21:46:53.729Z,37.08
2023-01-06T21:49:25.625Z,37.61
2023-01-06T21:51:55.665Z,36.95
2023-01-06T21:54:24.522Z,37.30
2023-01-06T21:56:53.615Z,37.07
2023-01-06T21:59:24.138Z,36.56
2023-01-06T22:01:52.743Z,37.23
2023-01-06T22:04:29.552Z,36.35
2023-01-06T22:07:01.427Z,36.58
2023-01-06T22:09:30.856Z,36.78
2023-01-06T22:12:01.452Z,36.83
2023-01-06T22:14:32.277Z,36.64
2023-01-06T22:17:01.282Z,37.09
2023-01-06T22:19:30.502Z,37.08
2023-01-06T22:21:59.743Z,35.88
2023-01-06T22:24:28.741Z,36.90
2023-01-06T22:26:56.970Z,37.31
2023-01-06T22:29:25.611Z,37.48
2023-01-06T22:31:55.393Z,37.01
2023-01-06T22:34:23.893Z,37.07
2023-01-06T22:36:52.380Z,36.97
2023-01-06T22:39:21.090Z,37.15
2023-01-06T22:41:49.368Z,37.11
2023-01-06T22:44:18.023Z,37.22
2023-01-06T22:46:46.328Z,37.09
2023-01-06T22:49:16.513Z,37.22
2023-01-06T22:51:45.028Z,37.61
2023-01-06T22:54:13.748Z,37.11
2023-01-06T22:56:42.364Z,37.59
2023-01-06T22:59:11.125Z,37.27
2023-01-06T23:01:39.541Z,37.31
2023-01-06T23:04:08.264Z,37.66
2023-01-06T23:06:37.884Z,37.41
2023-01-06T23:09:06.542Z,37.55
2023-01-06T23:11:37.026Z,37.41
2023-01-06T23:14:05.804Z,37.25
2023-01-06T23:16:36.738Z,37.18
2023-01-06T23:19:05.382Z,37.56
2023-01-06T23:21:35.676Z,36.90
2023-01-06T23:24:06.620Z,37.21
2023-01-06T23:26:38.371Z,36.98
2023-01-06T23:29:06.962Z,36.97
2023-01-06T23:31:38.623Z,36.67
2023-01-06T23:34:09.798Z,36.58
2023-01-06T23:36:38.792Z,37.07
2023-01-06T23:39:12.048Z,36.90
2023-01-06T23:41:40.510Z,37.01
2023-01-06T23:44:10.566Z,36.54
2023-01-06T23:46:40.785Z,36.86
2023-01-06T23:49:11.993Z,36.73
2023-01-06T23:51:40.728Z,37.21
2023-01-06T23:54:12.171Z,36.67
2023-01-06T23:56:40.566Z,36.90
2023-01-06T23:59:10.302Z,37.15
